ΕΜΥ, Εθνική Μετεωρολογική Υπηρεσία - Δελτία Καιρού, Προγνώσεις

ΑΕΡΟΝΑΥΤΙΛΙΑ

GREEK AIRPORTS CODES

TAF LGIR 251700Z 2518/2618 34015KT 9999 SCT020 BKN030 TEMPO 2518/2521 34015G25KT=

EUROPEAN AIRPORTS CODES

LPPT 252130Z 34009KT 9999 FEW040 12/10 Q1026=